createdAt,value
2023-03-20T00:00:24.664Z,9.59
2023-03-20T00:01:56.726Z,9.62
2023-03-20T00:03:28.472Z,9.62
2023-03-20T00:05:00.355Z,9.62
2023-03-20T00:06:32.566Z,9.61
2023-03-20T00:08:04.885Z,9.63
2023-03-20T00:09:36.680Z,9.64
2023-03-20T00:11:27.208Z,9.61
2023-03-20T00:13:00.336Z,9.66
2023-03-20T00:14:34.330Z,9.66
2023-03-20T00:16:06.824Z,9.67
2023-03-20T00:17:38.841Z,9.69
2023-03-20T00:19:18.386Z,9.69
2023-03-20T00:20:51.418Z,9.70
2023-03-20T00:22:23.137Z,9.71
2023-03-20T00:23:55.689Z,9.71
2023-03-20T00:25:28.476Z,9.71
2023-03-20T00:27:00.242Z,9.70
2023-03-20T00:28:35.024Z,9.70
2023-03-20T00:30:19.105Z,9.68
2023-03-20T00:31:51.209Z,9.68
2023-03-20T00:33:22.983Z,9.65
2023-03-20T00:34:54.672Z,9.62
2023-03-20T00:36:28.059Z,9.59
2023-03-20T00:37:59.791Z,9.55
2023-03-20T00:39:31.762Z,9.55
2023-03-20T00:41:12.948Z,9.51
2023-03-20T00:42:47.909Z,9.48
2023-03-20T00:44:34.499Z,9.43
2023-03-20T00:46:12.185Z,9.45
2023-03-20T00:47:44.473Z,9.44
2023-03-20T00:49:16.236Z,9.43
2023-03-20T00:50:49.605Z,9.41
2023-03-20T00:52:22.289Z,9.41
2023-03-20T00:53:56.752Z,9.40
2023-03-20T00:55:29.754Z,9.39
2023-03-20T00:57:06.636Z,9.39
2023-03-20T00:58:38.920Z,9.39
2023-03-20T01:00:26.207Z,9.36
2023-03-20T01:01:59.211Z,9.39
2023-03-20T01:03:32.248Z,9.40
2023-03-20T01:05:05.733Z,9.40
2023-03-20T01:06:37.635Z,9.40
2023-03-20T01:08:13.556Z,9.41
2023-03-20T01:09:45.594Z,9.40
2023-03-20T01:11:23.400Z,9.40
2023-03-20T01:12:58.325Z,9.41
2023-03-20T01:14:30.357Z,9.42
2023-03-20T01:16:02.600Z,9.42
2023-03-20T01:17:34.361Z,9.44
2023-03-20T01:19:06.522Z,9.44
2023-03-20T01:20:39.324Z,9.44
2023-03-20T01:22:11.281Z,9.44
2023-03-20T01:23:43.160Z,9.45
2023-03-20T01:25:16.277Z,9.44
2023-03-20T01:26:49.332Z,9.44
2023-03-20T01:28:23.911Z,9.43
2023-03-20T01:29:55.723Z,9.44
2023-03-20T01:31:27.499Z,9.45
2023-03-20T01:33:01.761Z,9.45
2023-03-20T01:34:34.972Z,9.46
2023-03-20T01:36:09.851Z,9.46
2023-03-20T01:37:42.323Z,9.46
2023-03-20T01:39:15.897Z,9.48
2023-03-20T01:40:59.331Z,9.45
2023-03-20T01:42:33.532Z,9.48
2023-03-20T01:44:23.894Z,9.47
2023-03-20T01:46:14.378Z,9.47
2023-03-20T01:47:47.982Z,9.47
2023-03-20T01:49:21.855Z,9.49
2023-03-20T01:50:55.835Z,9.48
2023-03-20T01:52:30.407Z,9.47
2023-03-20T01:54:17.412Z,9.45
2023-03-20T01:56:08.604Z,9.44
2023-03-20T01:57:47.852Z,9.44
2023-03-20T01:59:35.427Z,9.43
2023-03-20T02:01:11.792Z,9.42
2023-03-20T02:02:46.418Z,9.41
2023-03-20T02:04:35.013Z,9.41
2023-03-20T02:06:14.710Z,9.43
2023-03-20T02:08:29.481Z,9.40
2023-03-20T02:10:08.489Z,9.39
2023-03-20T02:11:48.588Z,9.38
2023-03-20T02:13:25.503Z,9.36
2023-03-20T02:14:58.735Z,9.36
2023-03-20T02:16:52.825Z,9.36
2023-03-20T02:18:42.236Z,9.35
2023-03-20T02:20:23.702Z,9.33
2023-03-20T02:22:27.050Z,9.31
2023-03-20T02:24:16.914Z,9.31
2023-03-20T02:26:25.455Z,9.27
2023-03-20T02:28:20.149Z,9.29
2023-03-20T02:30:26.288Z,9.24
2023-03-20T02:32:31.733Z,9.24
2023-03-20T02:34:34.401Z,9.22
2023-03-20T02:36:41.027Z,9.19
2023-03-20T02:38:37.448Z,9.19
2023-03-20T02:40:17.446Z,9.19
2023-03-20T02:42:14.387Z,9.14
2023-03-20T02:44:01.236Z,9.15
2023-03-20T02:45:48.431Z,9.15
2023-03-20T02:47:29.737Z,9.14
2023-03-20T02:49:08.618Z,9.13
2023-03-20T02:50:56.154Z,9.13
2023-03-20T02:52:46.363Z,9.12
2023-03-20T02:54:39.163Z,9.13
2023-03-20T02:56:18.556Z,9.15
2023-03-20T02:58:04.781Z,9.15
2023-03-20T03:00:16.558Z,9.16
2023-03-20T03:01:55.758Z,9.19
2023-03-20T03:03:34.396Z,9.19
2023-03-20T03:05:15.140Z,9.19
2023-03-20T03:06:50.572Z,9.22
2023-03-20T03:08:28.657Z,9.21
2023-03-20T03:10:11.169Z,9.22
2023-03-20T03:11:53.032Z,9.24
2023-03-20T03:13:31.413Z,9.25
2023-03-20T03:15:08.159Z,9.27
2023-03-20T03:16:41.587Z,9.29
2023-03-20T03:18:19.152Z,9.29
2023-03-20T03:19:55.204Z,9.31
2023-03-20T03:21:30.527Z,9.33
2023-03-20T03:23:02.888Z,9.34
2023-03-20T03:24:43.115Z,9.34
2023-03-20T03:26:44.371Z,9.34
2023-03-20T03:28:26.426Z,9.39
2023-03-20T03:30:11.841Z,9.42
2023-03-20T03:31:45.745Z,9.44
2023-03-20T03:33:32.247Z,9.44
2023-03-20T03:35:06.514Z,9.46
2023-03-20T03:36:47.466Z,9.45
2023-03-20T03:38:28.247Z,9.48
2023-03-20T03:40:19.844Z,9.48
2023-03-20T03:42:07.622Z,9.51
2023-03-20T03:43:47.427Z,9.55
2023-03-20T03:45:24.891Z,9.55
2023-03-20T03:47:11.648Z,9.55
2023-03-20T03:48:50.845Z,9.57
2023-03-20T03:50:33.434Z,9.56
2023-03-20T03:52:18.146Z,9.55
2023-03-20T03:53:55.861Z,9.57
2023-03-20T03:55:34.977Z,9.58
2023-03-20T03:57:12.475Z,9.57
2023-03-20T03:58:48.689Z,9.57
2023-03-20T04:00:25.146Z,9.55
2023-03-20T04:01:58.707Z,9.55
2023-03-20T04:03:38.081Z,9.53
2023-03-20T04:05:11.385Z,9.53
2023-03-20T04:06:43.485Z,9.51
2023-03-20T04:08:16.473Z,9.49
2023-03-20T04:09:48.246Z,9.47
2023-03-20T04:11:22.984Z,9.45
2023-03-20T04:12:54.700Z,9.43
2023-03-20T04:14:27.374Z,9.44
2023-03-20T04:15:59.341Z,9.40
2023-03-20T04:17:32.651Z,9.39
2023-03-20T04:19:04.351Z,9.36
2023-03-20T04:20:36.434Z,9.34
2023-03-20T04:22:10.520Z,9.31
2023-03-20T04:23:42.488Z,9.28
2023-03-20T04:25:23.205Z,9.23
2023-03-20T04:26:58.007Z,9.21
2023-03-20T04:28:30.072Z,9.17
2023-03-20T04:30:19.581Z,9.14
2023-03-20T04:32:10.740Z,9.11
2023-03-20T04:34:01.102Z,9.07
2023-03-20T04:35:52.209Z,9.03
2023-03-20T04:37:24.525Z,8.99
2023-03-20T04:39:06.175Z,8.94
2023-03-20T04:40:39.023Z,8.90
2023-03-20T04:42:11.046Z,8.87
2023-03-20T04:43:42.846Z,8.82
2023-03-20T04:45:14.654Z,8.78
2023-03-20T04:46:47.154Z,8.74
2023-03-20T04:48:21.549Z,8.70
2023-03-20T04:49:53.378Z,8.64
2023-03-20T04:51:25.354Z,8.60
2023-03-20T04:52:58.414Z,8.55
2023-03-20T04:54:30.450Z,8.50
2023-03-20T04:56:02.364Z,8.47
2023-03-20T04:57:36.437Z,8.44
2023-03-20T04:59:09.496Z,8.39
2023-03-20T05:00:41.286Z,8.35
2023-03-20T05:02:18.154Z,8.33
2023-03-20T05:03:49.959Z,8.32
2023-03-20T05:05:22.591Z,8.31
2023-03-20T05:06:54.958Z,8.29
2023-03-20T05:08:29.649Z,8.29
2023-03-20T05:10:06.048Z,8.29
2023-03-20T05:11:45.801Z,8.30
2023-03-20T05:13:37.465Z,8.33
2023-03-20T05:15:25.770Z,8.35
2023-03-20T05:17:29.643Z,8.36
2023-03-20T05:19:20.026Z,8.38
2023-03-20T05:21:02.944Z,8.40
2023-03-20T05:22:57.129Z,8.42
2023-03-20T05:24:52.938Z,8.45
2023-03-20T05:26:57.284Z,8.47
2023-03-20T05:28:46.026Z,8.50
2023-03-20T05:30:25.469Z,8.52
2023-03-20T05:32:26.341Z,8.55
2023-03-20T05:34:14.986Z,8.58
2023-03-20T05:35:53.192Z,8.61
2023-03-20T05:37:36.138Z,8.64
2023-03-20T05:39:17.279Z,8.66
2023-03-20T05:41:12.173Z,8.72
2023-03-20T05:42:52.815Z,8.73
2023-03-20T05:44:35.520Z,8.76
2023-03-20T05:46:26.697Z,8.78
2023-03-20T05:48:07.325Z,8.82
2023-03-20T05:49:44.669Z,8.86
2023-03-20T05:51:29.631Z,8.89
2023-03-20T05:53:27.230Z,8.93
2023-03-20T05:55:20.336Z,8.96
2023-03-20T05:56:59.269Z,8.99
2023-03-20T05:58:42.353Z,9.02
2023-03-20T06:00:32.735Z,9.05
2023-03-20T06:02:27.374Z,9.09
2023-03-20T06:04:08.904Z,9.14
2023-03-20T06:06:07.689Z,9.17
2023-03-20T06:07:40.084Z,9.21
2023-03-20T06:09:16.337Z,9.24
2023-03-20T06:10:50.740Z,9.28
2023-03-20T06:12:22.799Z,9.32
2023-03-20T06:13:55.840Z,9.35
2023-03-20T06:15:31.505Z,9.40
2023-03-20T06:17:14.034Z,9.44
2023-03-20T06:18:46.706Z,9.51
2023-03-20T06:20:18.673Z,9.55
2023-03-20T06:21:51.040Z,9.60
2023-03-20T06:23:26.201Z,9.65
2023-03-20T06:24:58.324Z,9.70
2023-03-20T06:26:36.867Z,9.75
2023-03-20T06:28:13.295Z,9.80
2023-03-20T06:29:45.353Z,9.86
2023-03-20T06:31:21.611Z,9.92
2023-03-20T06:32:53.774Z,9.98
2023-03-20T06:34:27.771Z,10.03
2023-03-20T06:35:59.580Z,10.10
2023-03-20T06:37:34.253Z,10.16
2023-03-20T06:39:11.741Z,10.23
2023-03-20T06:40:44.250Z,10.31
2023-03-20T06:42:17.769Z,10.38
2023-03-20T06:43:51.219Z,10.46
2023-03-20T06:45:23.911Z,10.53
2023-03-20T06:47:02.270Z,10.63
2023-03-20T06:48:36.506Z,10.72
2023-03-20T06:50:11.620Z,10.81
2023-03-20T06:51:43.343Z,10.87
2023-03-20T06:53:15.590Z,10.97
2023-03-20T06:54:52.224Z,11.06
2023-03-20T06:56:24.794Z,11.15
2023-03-20T06:57:57.204Z,11.24
2023-03-20T06:59:29.101Z,11.34
2023-03-20T07:01:02.524Z,11.40
2023-03-20T07:02:35.164Z,11.50
2023-03-20T07:04:07.707Z,11.60
2023-03-20T07:05:46.576Z,11.70
2023-03-20T07:07:19.032Z,11.79
2023-03-20T07:08:52.891Z,11.92
2023-03-20T07:10:24.696Z,12.01
2023-03-20T07:11:58.474Z,12.14
2023-03-20T07:13:31.516Z,12.24
2023-03-20T07:15:09.654Z,12.40
2023-03-20T07:16:42.318Z,12.55
2023-03-20T07:18:14.065Z,12.67
2023-03-20T07:19:46.602Z,12.83
2023-03-20T07:21:21.849Z,12.96
2023-03-20T07:22:53.776Z,13.09
2023-03-20T07:24:32.142Z,13.22
2023-03-20T07:26:05.581Z,13.33
2023-03-20T07:27:38.225Z,13.44
2023-03-20T07:29:10.022Z,13.52
2023-03-20T07:30:42.638Z,13.61
2023-03-20T07:32:15.470Z,13.66
2023-03-20T07:33:53.236Z,13.71
2023-03-20T07:35:25.007Z,13.71
2023-03-20T07:36:56.793Z,13.72
2023-03-20T07:38:28.578Z,13.69
2023-03-20T07:40:11.220Z,13.67
2023-03-20T07:42:00.941Z,13.63
2023-03-20T07:43:48.972Z,13.56
2023-03-20T07:45:29.460Z,13.49
2023-03-20T07:47:01.284Z,13.42
2023-03-20T07:48:33.004Z,13.35
2023-03-20T07:50:07.752Z,13.30
2023-03-20T07:51:40.403Z,13.21
2023-03-20T07:53:12.406Z,13.16
2023-03-20T07:54:44.119Z,13.09
2023-03-20T07:56:15.947Z,13.02
2023-03-20T07:57:51.193Z,12.96
2023-03-20T07:59:23.139Z,12.88
2023-03-20T08:00:57.770Z,12.84
2023-03-20T08:02:30.601Z,12.75
2023-03-20T08:04:02.503Z,12.69
2023-03-20T08:05:34.488Z,12.63
2023-03-20T08:07:06.809Z,12.56
2023-03-20T08:08:38.718Z,12.48
2023-03-20T08:10:11.023Z,12.40
2023-03-20T08:11:42.718Z,12.36
2023-03-20T08:13:14.486Z,12.31
2023-03-20T08:14:46.379Z,12.26
2023-03-20T08:16:18.165Z,12.25
2023-03-20T08:17:49.931Z,12.23
2023-03-20T08:19:21.801Z,12.23
2023-03-20T08:20:53.496Z,12.25
2023-03-20T08:22:25.235Z,12.26
2023-03-20T08:23:57.157Z,12.29
2023-03-20T08:25:33.633Z,12.31
2023-03-20T08:27:05.855Z,12.38
2023-03-20T08:28:46.984Z,12.42
2023-03-20T08:30:19.632Z,12.52
2023-03-20T08:31:51.475Z,12.61
2023-03-20T08:33:23.181Z,12.70
2023-03-20T08:34:55.823Z,12.81
2023-03-20T08:36:27.749Z,12.91
2023-03-20T08:37:59.594Z,13.03
2023-03-20T08:39:33.273Z,13.14
2023-03-20T08:41:06.434Z,13.28
2023-03-20T08:42:38.440Z,13.40
2023-03-20T08:44:10.247Z,13.54
2023-03-20T08:45:41.927Z,13.66
2023-03-20T08:47:14.003Z,13.79
2023-03-20T08:48:45.825Z,13.88
2023-03-20T08:50:17.974Z,13.95
2023-03-20T08:51:49.708Z,14.04
2023-03-20T08:53:22.268Z,14.10
2023-03-20T08:54:54.034Z,14.17
2023-03-20T08:56:25.949Z,14.23
2023-03-20T08:57:57.857Z,14.27
2023-03-20T08:59:29.769Z,14.30
2023-03-20T09:01:09.333Z,14.30
2023-03-20T09:02:42.947Z,14.34
2023-03-20T09:04:14.738Z,14.33
2023-03-20T09:05:48.706Z,14.37
2023-03-20T09:07:22.075Z,14.38
2023-03-20T09:08:55.554Z,14.41
2023-03-20T09:10:27.337Z,14.44
2023-03-20T09:11:59.437Z,14.50
2023-03-20T09:13:31.498Z,14.56
2023-03-20T09:15:05.135Z,14.67
2023-03-20T09:16:36.893Z,14.76
2023-03-20T09:18:08.640Z,14.87
2023-03-20T09:19:44.164Z,14.98
2023-03-20T09:21:15.984Z,15.11
2023-03-20T09:22:47.733Z,15.23
2023-03-20T09:24:19.448Z,15.33
2023-03-20T09:25:51.499Z,15.47
2023-03-20T09:27:23.196Z,15.59
2023-03-20T09:28:54.884Z,15.66
2023-03-20T09:30:26.563Z,15.73
2023-03-20T09:31:58.854Z,15.82
2023-03-20T09:33:30.794Z,15.84
2023-03-20T09:35:02.968Z,15.82
2023-03-20T09:36:34.841Z,15.81
2023-03-20T09:38:06.924Z,15.76
2023-03-20T09:39:39.003Z,15.70
2023-03-20T09:41:21.878Z,15.61
2023-03-20T09:43:05.522Z,15.58
2023-03-20T09:44:56.104Z,15.50
2023-03-20T09:47:02.673Z,15.45
2023-03-20T09:48:58.632Z,15.43
2023-03-20T09:50:43.816Z,15.40
2023-03-20T09:52:22.092Z,15.38
2023-03-20T09:53:59.889Z,15.37
2023-03-20T09:55:39.948Z,15.35
2023-03-20T09:57:22.716Z,15.34
2023-03-20T09:58:56.986Z,15.33
2023-03-20T10:00:32.648Z,15.30
2023-03-20T10:02:24.367Z,15.28
2023-03-20T10:04:00.657Z,15.35
2023-03-20T10:05:39.081Z,15.39
2023-03-20T10:07:15.646Z,15.47
2023-03-20T10:08:47.630Z,15.53
2023-03-20T10:10:24.526Z,15.64
2023-03-20T10:12:25.877Z,15.70
2023-03-20T10:14:38.348Z,15.80
2023-03-20T10:16:36.181Z,15.88
2023-03-20T10:18:16.048Z,15.93
2023-03-20T10:20:14.653Z,15.92
2023-03-20T10:21:49.642Z,15.96
2023-03-20T10:23:40.241Z,15.88
2023-03-20T10:25:24.033Z,15.83
2023-03-20T10:27:01.347Z,15.78
2023-03-20T10:29:01.137Z,15.63
2023-03-20T10:30:49.480Z,15.52
2023-03-20T10:32:29.909Z,15.38
2023-03-20T10:34:16.669Z,15.21
2023-03-20T10:36:15.760Z,15.09
2023-03-20T10:38:19.563Z,14.93
2023-03-20T10:40:20.891Z,14.80
2023-03-20T10:42:01.004Z,14.75
2023-03-20T10:43:39.758Z,14.71
2023-03-20T10:45:18.161Z,14.61
2023-03-20T10:46:53.763Z,14.55
2023-03-20T10:48:36.841Z,14.50
2023-03-20T10:50:17.672Z,14.42
2023-03-20T10:51:56.713Z,14.37
2023-03-20T10:53:34.745Z,14.30
2023-03-20T10:55:23.177Z,14.20
2023-03-20T10:56:59.038Z,14.19
2023-03-20T10:58:36.904Z,14.12
2023-03-20T11:00:17.736Z,14.03
2023-03-20T11:01:49.570Z,13.97
2023-03-20T11:03:24.814Z,13.89
2023-03-20T11:04:56.893Z,13.82
2023-03-20T11:06:34.614Z,13.76
2023-03-20T11:08:13.211Z,13.67
2023-03-20T11:09:44.969Z,13.61
2023-03-20T11:11:28.666Z,13.52
2023-03-20T11:13:16.926Z,13.44
2023-03-20T11:14:48.754Z,13.34
2023-03-20T11:16:36.798Z,13.28
2023-03-20T11:19:27.117Z,13.18
2023-03-20T11:21:02.211Z,13.15
2023-03-20T11:22:34.339Z,13.10
2023-03-20T11:24:22.232Z,13.11
2023-03-20T11:26:07.184Z,13.08
2023-03-20T11:27:41.754Z,13.08
2023-03-20T11:29:35.295Z,13.06
2023-03-20T11:31:13.770Z,13.13
2023-03-20T11:32:49.243Z,13.20
2023-03-20T11:34:27.882Z,13.28
2023-03-20T11:36:00.004Z,13.36
2023-03-20T11:37:35.366Z,13.44
2023-03-20T11:39:14.554Z,13.49
2023-03-20T11:40:52.534Z,13.56
2023-03-20T11:42:27.257Z,13.59
2023-03-20T11:43:59.257Z,13.63
2023-03-20T11:45:39.940Z,13.66
2023-03-20T11:47:25.219Z,13.65
2023-03-20T11:49:19.053Z,13.69
2023-03-20T11:51:04.837Z,13.68
2023-03-20T11:52:40.082Z,13.72
2023-03-20T11:54:17.521Z,13.71
2023-03-20T11:56:23.812Z,13.64
2023-03-20T11:58:04.958Z,13.67
2023-03-20T11:59:37.468Z,13.66
2023-03-20T12:01:12.453Z,13.62
2023-03-20T12:02:45.036Z,13.59
2023-03-20T12:04:33.445Z,13.56
2023-03-20T12:06:18.270Z,13.55
2023-03-20T12:07:53.166Z,13.56
2023-03-20T12:09:38.489Z,13.55
2023-03-20T12:11:30.017Z,13.53
2023-03-20T12:13:06.650Z,13.53
2023-03-20T12:14:46.122Z,13.57
2023-03-20T12:16:21.581Z,13.56
2023-03-20T12:18:05.865Z,13.56
2023-03-20T12:19:40.602Z,13.59
2023-03-20T12:21:25.932Z,13.56
2023-03-20T12:23:11.707Z,13.56
2023-03-20T12:24:49.473Z,13.59
2023-03-20T12:26:21.174Z,13.59
2023-03-20T12:28:01.315Z,13.58
2023-03-20T12:30:04.370Z,13.54
2023-03-20T12:31:43.902Z,13.56
2023-03-20T12:33:22.994Z,13.54
2023-03-20T12:35:24.501Z,13.50
2023-03-20T12:36:59.339Z,13.49
2023-03-20T12:38:33.122Z,13.49
2023-03-20T12:40:05.678Z,13.46
2023-03-20T12:41:51.054Z,13.43
2023-03-20T12:43:27.345Z,13.39
2023-03-20T12:45:13.989Z,13.33
2023-03-20T12:47:17.446Z,13.30
2023-03-20T12:48:55.588Z,13.32
2023-03-20T12:50:35.074Z,13.32
2023-03-20T12:52:45.968Z,13.30
2023-03-20T12:54:23.751Z,13.35
2023-03-20T12:56:16.677Z,13.37
2023-03-20T12:58:01.529Z,13.43
2023-03-20T12:59:45.457Z,13.47
2023-03-20T13:01:40.293Z,13.48
2023-03-20T13:03:30.540Z,13.54
2023-03-20T13:05:33.395Z,13.58
2023-03-20T13:07:17.677Z,13.64
2023-03-20T13:09:07.366Z,13.72
2023-03-20T13:11:01.507Z,13.81
2023-03-20T13:12:39.721Z,13.88
2023-03-20T13:14:27.542Z,13.94
2023-03-20T13:16:13.365Z,14.01
2023-03-20T13:17:56.413Z,14.07
2023-03-20T13:19:44.554Z,14.12
2023-03-20T13:21:37.426Z,14.17
2023-03-20T13:23:38.765Z,14.17
2023-03-20T13:25:43.686Z,14.19
2023-03-20T13:27:41.140Z,14.18
2023-03-20T13:29:29.359Z,14.22
2023-03-20T13:31:17.358Z,14.19
2023-03-20T13:33:07.528Z,14.18
2023-03-20T13:35:09.491Z,14.10
2023-03-20T13:37:22.253Z,14.09
2023-03-20T13:39:04.862Z,14.12
2023-03-20T13:40:41.548Z,14.14
2023-03-20T13:42:18.755Z,14.14
2023-03-20T13:43:57.451Z,14.17
2023-03-20T13:45:39.146Z,14.19
2023-03-20T13:47:18.631Z,14.19
2023-03-20T13:48:53.128Z,14.20
2023-03-20T13:50:39.227Z,14.19
2023-03-20T13:52:19.841Z,14.21
2023-03-20T13:54:11.060Z,14.22
2023-03-20T13:56:00.087Z,14.17
2023-03-20T13:58:07.138Z,14.13
2023-03-20T13:59:53.856Z,14.08
2023-03-20T14:01:47.431Z,14.04
2023-03-20T14:03:35.949Z,13.90
2023-03-20T14:05:20.368Z,13.82
2023-03-20T14:06:57.095Z,13.78
2023-03-20T14:08:30.471Z,13.71
2023-03-20T14:10:22.743Z,13.61
2023-03-20T14:11:56.889Z,13.61
2023-03-20T14:13:30.812Z,13.57
2023-03-20T14:15:04.032Z,13.52
2023-03-20T14:16:35.845Z,13.47
2023-03-20T14:18:18.674Z,13.38
2023-03-20T14:19:51.774Z,13.36
2023-03-20T14:21:24.105Z,13.29
2023-03-20T14:22:57.701Z,13.20
2023-03-20T14:24:29.777Z,13.11
2023-03-20T14:26:06.072Z,13.03
2023-03-20T14:27:53.879Z,12.92
2023-03-20T14:29:38.622Z,12.84
2023-03-20T14:31:30.640Z,12.79
2023-03-20T14:33:05.467Z,12.70
2023-03-20T14:34:48.657Z,12.62
2023-03-20T14:36:26.433Z,12.58
2023-03-20T14:38:19.836Z,12.49
2023-03-20T14:40:00.055Z,12.40
2023-03-20T14:41:50.459Z,12.33
2023-03-20T14:43:41.663Z,12.25
2023-03-20T14:45:13.313Z,12.18
2023-03-20T14:47:05.076Z,12.08
2023-03-20T14:48:47.009Z,12.03
2023-03-20T14:50:27.141Z,11.99
2023-03-20T14:52:11.054Z,11.93
2023-03-20T14:53:42.796Z,11.87
2023-03-20T14:55:17.449Z,11.80
2023-03-20T14:56:50.755Z,11.75
2023-03-20T14:58:35.847Z,11.68
2023-03-20T15:00:19.850Z,11.63
2023-03-20T15:02:02.052Z,11.60
2023-03-20T15:03:34.521Z,11.56
2023-03-20T15:05:07.316Z,11.53
2023-03-20T15:06:49.913Z,11.47
2023-03-20T15:08:25.758Z,11.44
2023-03-20T15:10:00.809Z,11.38
2023-03-20T15:11:34.378Z,11.34
2023-03-20T15:13:08.099Z,11.29
2023-03-20T15:14:45.731Z,11.24
2023-03-20T15:16:25.284Z,11.22
2023-03-20T15:18:04.401Z,11.15
2023-03-20T15:19:39.744Z,11.11
2023-03-20T15:21:21.399Z,11.07
2023-03-20T15:22:57.894Z,11.06
2023-03-20T15:24:30.290Z,11.01
2023-03-20T15:26:02.097Z,10.99
2023-03-20T15:27:34.257Z,10.96
2023-03-20T15:29:16.727Z,10.92
2023-03-20T15:30:50.573Z,10.92
2023-03-20T15:32:24.011Z,10.91
2023-03-20T15:33:57.872Z,10.89
2023-03-20T15:35:29.985Z,10.87
2023-03-20T15:37:03.564Z,10.87
2023-03-20T15:38:36.541Z,10.88
2023-03-20T15:40:14.890Z,10.86
2023-03-20T15:41:51.971Z,10.88
2023-03-20T15:43:25.939Z,10.88
2023-03-20T15:44:57.905Z,10.89
2023-03-20T15:46:29.618Z,10.89
2023-03-20T15:48:01.253Z,10.91
2023-03-20T15:49:33.417Z,10.92
2023-03-20T15:51:06.139Z,10.94
2023-03-20T15:52:52.832Z,10.94
2023-03-20T15:54:25.295Z,10.95
2023-03-20T15:56:17.248Z,10.94
2023-03-20T15:57:54.089Z,10.96
2023-03-20T15:59:30.208Z,10.97
2023-03-20T16:01:05.193Z,10.95
2023-03-20T16:02:37.520Z,10.95
2023-03-20T16:04:14.141Z,10.94
2023-03-20T16:05:50.089Z,10.93
2023-03-20T16:07:33.191Z,10.93
2023-03-20T16:09:08.370Z,10.92
2023-03-20T16:10:43.230Z,10.92
2023-03-20T16:12:17.576Z,10.91
2023-03-20T16:13:51.583Z,10.89
2023-03-20T16:15:27.702Z,10.89
2023-03-20T16:17:01.468Z,10.88
2023-03-20T16:18:38.295Z,10.89
2023-03-20T16:20:17.379Z,10.85
2023-03-20T16:22:01.837Z,10.83
2023-03-20T16:23:41.055Z,10.83
2023-03-20T16:25:15.958Z,10.82
2023-03-20T16:26:51.355Z,10.81
2023-03-20T16:28:26.136Z,10.78
2023-03-20T16:29:58.633Z,10.76
2023-03-20T16:31:34.264Z,10.74
2023-03-20T16:33:13.460Z,10.73
2023-03-20T16:34:50.536Z,10.70
2023-03-20T16:36:29.883Z,10.67
2023-03-20T16:38:02.833Z,10.65
2023-03-20T16:39:34.599Z,10.63
2023-03-20T16:41:30.636Z,10.56
2023-03-20T16:43:12.460Z,10.56
2023-03-20T16:44:44.244Z,10.56
2023-03-20T16:46:24.321Z,10.53
2023-03-20T16:48:11.488Z,10.44
2023-03-20T16:50:04.570Z,10.41
2023-03-20T16:51:36.542Z,10.40
2023-03-20T16:53:14.145Z,10.35
2023-03-20T16:54:45.986Z,10.31
2023-03-20T16:56:26.208Z,10.28
2023-03-20T16:58:06.038Z,10.25
2023-03-20T16:59:41.319Z,10.23
2023-03-20T17:01:21.536Z,10.20
2023-03-20T17:03:22.779Z,10.18
2023-03-20T17:04:56.891Z,10.19
2023-03-20T17:06:36.005Z,10.16
2023-03-20T17:08:13.338Z,10.14
2023-03-20T17:09:55.740Z,10.11
2023-03-20T17:11:31.188Z,10.11
2023-03-20T17:13:02.895Z,10.09
2023-03-20T17:14:34.641Z,10.08
2023-03-20T17:16:06.944Z,10.08
2023-03-20T17:17:38.999Z,10.06
2023-03-20T17:19:16.576Z,10.05
2023-03-20T17:20:48.290Z,10.04
2023-03-20T17:22:23.277Z,10.04
2023-03-20T17:23:55.551Z,10.04
2023-03-20T17:25:27.272Z,10.03
2023-03-20T17:26:59.156Z,10.03
2023-03-20T17:28:37.156Z,10.01
2023-03-20T17:30:18.723Z,9.99
2023-03-20T17:31:50.553Z,9.99
2023-03-20T17:33:22.706Z,9.98
2023-03-20T17:34:54.428Z,9.95
2023-03-20T17:36:29.127Z,9.94
2023-03-20T17:38:00.917Z,9.92
2023-03-20T17:39:33.033Z,9.90
2023-03-20T17:41:04.876Z,9.89
2023-03-20T17:42:39.366Z,9.88
2023-03-20T17:44:11.065Z,9.85
2023-03-20T17:45:44.397Z,9.85
2023-03-20T17:47:20.896Z,9.84
2023-03-20T17:49:00.732Z,9.81
2023-03-20T17:50:32.428Z,9.81
2023-03-20T17:52:04.968Z,9.79
2023-03-20T17:53:36.686Z,9.78
2023-03-20T17:55:09.231Z,9.76
2023-03-20T17:56:42.288Z,9.75
2023-03-20T17:58:21.157Z,9.74
2023-03-20T17:59:52.885Z,9.72
2023-03-20T18:01:25.597Z,9.70
2023-03-20T18:02:57.323Z,9.69
2023-03-20T18:04:29.480Z,9.67
2023-03-20T18:06:01.863Z,9.66
2023-03-20T18:07:33.885Z,9.65
2023-03-20T18:09:05.989Z,9.63
2023-03-20T18:10:38.607Z,9.65
2023-03-20T18:12:15.881Z,9.63
2023-03-20T18:13:47.988Z,9.62
2023-03-20T18:15:19.688Z,9.62
2023-03-20T18:16:51.739Z,9.61
2023-03-20T18:18:24.162Z,9.62
2023-03-20T18:19:56.025Z,9.60
2023-03-20T18:21:27.785Z,9.58
2023-03-20T18:22:59.495Z,9.57
2023-03-20T18:24:31.291Z,9.56
2023-03-20T18:26:03.250Z,9.55
2023-03-20T18:27:35.584Z,9.54
2023-03-20T18:29:07.396Z,9.53
2023-03-20T18:30:41.492Z,9.54
2023-03-20T18:32:13.217Z,9.54
2023-03-20T18:33:49.605Z,9.54
2023-03-20T18:35:21.425Z,9.53
2023-03-20T18:36:53.131Z,9.53
2023-03-20T18:38:25.825Z,9.53
2023-03-20T18:39:57.943Z,9.55
2023-03-20T18:41:29.676Z,9.54
2023-03-20T18:43:03.119Z,9.54
2023-03-20T18:44:35.305Z,9.54
2023-03-20T18:46:11.708Z,9.55
2023-03-20T18:47:43.597Z,9.56
2023-03-20T18:49:17.472Z,9.55
2023-03-20T18:50:51.108Z,9.56
2023-03-20T18:52:23.270Z,9.56
2023-03-20T18:53:55.408Z,9.55
2023-03-20T18:55:28.947Z,9.55
2023-03-20T18:57:00.952Z,9.55
2023-03-20T18:58:32.779Z,9.55
2023-03-20T19:00:33.953Z,9.53
2023-03-20T19:02:06.507Z,9.55
2023-03-20T19:03:41.055Z,9.57
2023-03-20T19:05:12.891Z,9.54
2023-03-20T19:06:45.402Z,9.56
2023-03-20T19:08:17.289Z,9.53
2023-03-20T19:09:49.411Z,9.52
2023-03-20T19:11:21.826Z,9.51
2023-03-20T19:12:55.292Z,9.51
2023-03-20T19:14:27.172Z,9.48
2023-03-20T19:15:59.290Z,9.47
2023-03-20T19:17:31.204Z,9.47
2023-03-20T19:19:05.845Z,9.46
2023-03-20T19:20:42.056Z,9.44
2023-03-20T19:22:28.506Z,9.42
2023-03-20T19:24:05.139Z,9.41
2023-03-20T19:25:38.074Z,9.39
2023-03-20T19:27:17.476Z,9.37
2023-03-20T19:28:49.376Z,9.35
2023-03-20T19:30:29.206Z,9.33
2023-03-20T19:32:01.022Z,9.32
2023-03-20T19:33:33.439Z,9.32
2023-03-20T19:35:43.654Z,9.30
2023-03-20T19:36:57.549Z,9.28
2023-03-20T19:38:29.377Z,9.27
2023-03-20T19:40:01.081Z,9.28
2023-03-20T19:41:33.201Z,9.24
2023-03-20T19:43:06.134Z,9.24
2023-03-20T19:44:37.809Z,9.22
2023-03-20T19:46:28.458Z,9.19
2023-03-20T19:48:18.936Z,9.19
2023-03-20T19:49:51.435Z,9.18
2023-03-20T19:51:26.808Z,9.16
2023-03-20T19:52:58.897Z,9.12
2023-03-20T19:54:30.725Z,9.09
2023-03-20T19:56:02.409Z,9.04
2023-03-20T19:57:34.403Z,9.00
2023-03-20T19:59:06.599Z,8.98
2023-03-20T20:01:12.326Z,8.91
2023-03-20T20:02:34.034Z,8.86
2023-03-20T20:04:06.010Z,8.79
2023-03-20T20:05:39.562Z,8.74
2023-03-20T20:07:53.148Z,8.68
2023-03-20T20:09:04.673Z,8.62
2023-03-20T20:10:40.336Z,8.54
2023-03-20T20:12:12.032Z,8.48
2023-03-20T20:14:07.247Z,8.41
2023-03-20T20:15:39.073Z,8.34
2023-03-20T20:17:10.792Z,8.28
2023-03-20T20:18:42.533Z,8.21
2023-03-20T20:20:25.019Z,8.14
2023-03-20T20:23:49.169Z,8.04
2023-03-20T20:25:21.193Z,8.00
2023-03-20T20:27:03.455Z,7.95
2023-03-20T20:28:46.713Z,7.91
2023-03-20T20:30:19.909Z,7.88
2023-03-20T20:31:51.711Z,7.85
2023-03-20T20:33:28.741Z,7.82
2023-03-20T20:38:50.999Z,7.83
2023-03-20T20:40:25.335Z,7.83
2023-03-20T20:41:57.036Z,7.83
2023-03-20T20:43:59.562Z,7.85
2023-03-20T20:45:22.403Z,7.86
2023-03-20T20:46:54.139Z,7.86
2023-03-20T20:48:26.395Z,7.89
2023-03-20T20:49:58.095Z,7.91
2023-03-20T20:51:31.361Z,7.93
2023-03-20T20:53:04.064Z,7.97
2023-03-20T20:54:35.762Z,7.98
2023-03-20T20:56:07.873Z,7.99
2023-03-20T20:57:39.615Z,8.03
2023-03-20T20:59:13.803Z,8.04
2023-03-20T21:00:52.502Z,8.07
2023-03-20T21:02:27.636Z,8.12
2023-03-20T21:03:59.738Z,8.13
2023-03-20T21:05:31.757Z,8.13
2023-03-20T21:07:09.807Z,8.16
2023-03-20T21:08:42.562Z,8.20
2023-03-20T21:10:17.176Z,8.21
2023-03-20T21:11:48.984Z,8.23
2023-03-20T21:13:21.903Z,8.24
2023-03-20T21:14:53.767Z,8.25
2023-03-20T21:16:26.580Z,8.26
2023-03-20T21:18:01.360Z,8.26
2023-03-20T21:19:39.328Z,8.28
2023-03-20T21:21:12.775Z,8.29
2023-03-20T21:22:44.538Z,8.29
2023-03-20T21:24:32.409Z,8.30
2023-03-20T21:26:05.414Z,8.31
2023-03-20T21:27:37.841Z,8.33
2023-03-20T21:29:09.520Z,8.33
2023-03-20T21:30:54.668Z,8.35
2023-03-20T21:32:36.869Z,8.36
2023-03-20T21:34:08.665Z,8.37